sensor_id;sensor_type;location;lat;lon;timestamp;P1;durP1;ratioP1;P2;durP2;ratioP2
11835;SDS011;5977;51.972;7.640;2022-07-29T00:02:03;169.07;;;52.03;;
11835;SDS011;5977;51.972;7.640;2022-07-29T00:04:33;168.67;;;51.93;;
11835;SDS011;5977;51.972;7.640;2022-07-29T00:07:01;168.53;;;51.63;;
11835;SDS011;5977;51.972;7.640;2022-07-29T00:09:29;167.73;;;51.10;;
11835;SDS011;5977;51.972;7.640;2022-07-29T00:11:58;168.43;;;51.87;;
11835;SDS011;5977;51.972;7.640;2022-07-29T00:14:28;168.90;;;51.77;;
11835;SDS011;5977;51.972;7.640;2022-07-29T00:16:56;168.17;;;51.50;;
11835;SDS011;5977;51.972;7.640;2022-07-29T00:19:24;168.43;;;51.87;;
11835;SDS011;5977;51.972;7.640;2022-07-29T00:21:52;168.17;;;51.60;;
11835;SDS011;5977;51.972;7.640;2022-07-29T00:24:20;168.33;;;51.83;;
11835;SDS011;5977;51.972;7.640;2022-07-29T00:26:48;168.87;;;52.40;;
11835;SDS011;5977;51.972;7.640;2022-07-29T00:29:16;169.20;;;52.20;;
11835;SDS011;5977;51.972;7.640;2022-07-29T00:32:01;168.63;;;52.10;;
11835;SDS011;5977;51.972;7.640;2022-07-29T00:34:29;167.83;;;51.37;;
11835;SDS011;5977;51.972;7.640;2022-07-29T00:37:14;168.30;;;51.80;;
11835;SDS011;5977;51.972;7.640;2022-07-29T00:39:42;168.77;;;51.57;;
11835;SDS011;5977;51.972;7.640;2022-07-29T00:42:10;168.80;;;51.80;;
11835;SDS011;5977;51.972;7.640;2022-07-29T00:44:38;169.30;;;51.93;;
11835;SDS011;5977;51.972;7.640;2022-07-29T00:47:09;167.83;;;51.47;;
11835;SDS011;5977;51.972;7.640;2022-07-29T00:49:38;167.70;;;51.27;;
11835;SDS011;5977;51.972;7.640;2022-07-29T00:52:07;168.90;;;51.77;;
11835;SDS011;5977;51.972;7.640;2022-07-29T00:54:37;168.50;;;51.30;;
11835;SDS011;5977;51.972;7.640;2022-07-29T00:57:10;168.97;;;51.80;;
11835;SDS011;5977;51.972;7.640;2022-07-29T00:59:39;168.43;;;51.43;;
11835;SDS011;5977;51.972;7.640;2022-07-29T01:02:06;168.73;;;51.73;;
11835;SDS011;5977;51.972;7.640;2022-07-29T01:04:36;167.93;;;51.53;;
11835;SDS011;5977;51.972;7.640;2022-07-29T01:07:04;167.83;;;51.03;;
11835;SDS011;5977;51.972;7.640;2022-07-29T01:09:33;167.33;;;50.97;;
11835;SDS011;5977;51.972;7.640;2022-07-29T01:12:12;168.20;;;51.43;;
11835;SDS011;5977;51.972;7.640;2022-07-29T01:14:42;168.17;;;51.40;;
11835;SDS011;5977;51.972;7.640;2022-07-29T01:17:14;168.03;;;51.30;;
11835;SDS011;5977;51.972;7.640;2022-07-29T01:19:49;168.83;;;51.80;;
11835;SDS011;5977;51.972;7.640;2022-07-29T01:22:25;167.47;;;50.87;;
11835;SDS011;5977;51.972;7.640;2022-07-29T01:25:03;168.13;;;51.37;;
11835;SDS011;5977;51.972;7.640;2022-07-29T01:27:41;167.70;;;51.30;;
11835;SDS011;5977;51.972;7.640;2022-07-29T01:30:30;168.07;;;51.43;;
11835;SDS011;5977;51.972;7.640;2022-07-29T01:33:03;167.30;;;50.87;;
11835;SDS011;5977;51.972;7.640;2022-07-29T01:35:36;167.87;;;51.20;;
11835;SDS011;5977;51.972;7.640;2022-07-29T01:38:08;168.40;;;51.20;;
11835;SDS011;5977;51.972;7.640;2022-07-29T01:40:40;168.00;;;51.00;;
11835;SDS011;5977;51.972;7.640;2022-07-29T01:43:14;168.27;;;51.37;;
11835;SDS011;5977;51.972;7.640;2022-07-29T01:45:46;168.73;;;51.50;;
11835;SDS011;5977;51.972;7.640;2022-07-29T01:48:19;168.47;;;51.53;;
11835;SDS011;5977;51.972;7.640;2022-07-29T01:50:52;168.20;;;51.30;;
11835;SDS011;5977;51.972;7.640;2022-07-29T01:53:26;167.87;;;51.17;;
11835;SDS011;5977;51.972;7.640;2022-07-29T01:56:03;167.73;;;51.03;;
11835;SDS011;5977;51.972;7.640;2022-07-29T01:58:34;167.87;;;51.07;;
11835;SDS011;5977;51.972;7.640;2022-07-29T02:01:05;167.27;;;50.70;;
11835;SDS011;5977;51.972;7.640;2022-07-29T02:03:37;167.27;;;50.60;;
11835;SDS011;5977;51.972;7.640;2022-07-29T02:06:06;166.97;;;50.47;;
11835;SDS011;5977;51.972;7.640;2022-07-29T02:08:35;167.63;;;51.13;;
11835;SDS011;5977;51.972;7.640;2022-07-29T02:11:05;167.87;;;51.03;;
11835;SDS011;5977;51.972;7.640;2022-07-29T02:13:35;167.03;;;50.60;;
11835;SDS011;5977;51.972;7.640;2022-07-29T02:16:06;168.10;;;51.10;;
11835;SDS011;5977;51.972;7.640;2022-07-29T02:18:37;167.93;;;50.90;;
11835;SDS011;5977;51.972;7.640;2022-07-29T02:21:08;167.57;;;50.87;;
11835;SDS011;5977;51.972;7.640;2022-07-29T02:23:41;167.50;;;50.53;;
11835;SDS011;5977;51.972;7.640;2022-07-29T02:26:17;167.03;;;50.77;;
11835;SDS011;5977;51.972;7.640;2022-07-29T02:28:46;168.50;;;51.40;;
11835;SDS011;5977;51.972;7.640;2022-07-29T02:31:16;167.70;;;51.00;;
11835;SDS011;5977;51.972;7.640;2022-07-29T02:33:46;167.60;;;51.23;;
11835;SDS011;5977;51.972;7.640;2022-07-29T02:36:15;168.30;;;51.43;;
11835;SDS011;5977;51.972;7.640;2022-07-29T02:38:44;166.13;;;50.37;;
11835;SDS011;5977;51.972;7.640;2022-07-29T02:41:20;167.13;;;51.10;;
11835;SDS011;5977;51.972;7.640;2022-07-29T02:44:02;167.17;;;51.07;;
11835;SDS011;5977;51.972;7.640;2022-07-29T02:46:35;166.57;;;50.30;;
11835;SDS011;5977;51.972;7.640;2022-07-29T02:49:07;167.70;;;51.00;;
11835;SDS011;5977;51.972;7.640;2022-07-29T02:51:41;167.37;;;50.93;;
11835;SDS011;5977;51.972;7.640;2022-07-29T02:54:15;167.80;;;51.10;;
11835;SDS011;5977;51.972;7.640;2022-07-29T02:56:49;167.80;;;50.97;;
11835;SDS011;5977;51.972;7.640;2022-07-29T02:59:22;166.07;;;50.27;;
11835;SDS011;5977;51.972;7.640;2022-07-29T03:01:55;166.83;;;50.73;;
11835;SDS011;5977;51.972;7.640;2022-07-29T03:04:26;167.27;;;51.03;;
11835;SDS011;5977;51.972;7.640;2022-07-29T03:09:26;167.53;;;51.23;;
11835;SDS011;5977;51.972;7.640;2022-07-29T03:11:55;167.57;;;51.50;;
11835;SDS011;5977;51.972;7.640;2022-07-29T03:14:24;167.33;;;51.33;;
11835;SDS011;5977;51.972;7.640;2022-07-29T03:16:54;166.93;;;51.47;;
11835;SDS011;5977;51.972;7.640;2022-07-29T03:19:23;168.50;;;51.83;;
11835;SDS011;5977;51.972;7.640;2022-07-29T03:21:51;168.93;;;52.43;;
11835;SDS011;5977;51.972;7.640;2022-07-29T03:24:29;169.50;;;52.90;;
11835;SDS011;5977;51.972;7.640;2022-07-29T03:26:59;168.47;;;52.07;;
11835;SDS011;5977;51.972;7.640;2022-07-29T03:29:27;169.13;;;52.90;;
11835;SDS011;5977;51.972;7.640;2022-07-29T03:32:01;168.70;;;52.90;;
11835;SDS011;5977;51.972;7.640;2022-07-29T03:34:34;170.20;;;53.40;;
11835;SDS011;5977;51.972;7.640;2022-07-29T03:37:02;169.17;;;52.67;;
11835;SDS011;5977;51.972;7.640;2022-07-29T03:39:33;169.63;;;53.37;;
11835;SDS011;5977;51.972;7.640;2022-07-29T03:42:05;169.13;;;52.53;;
11835;SDS011;5977;51.972;7.640;2022-07-29T03:44:36;170.33;;;53.30;;
11835;SDS011;5977;51.972;7.640;2022-07-29T03:47:07;168.73;;;52.50;;
11835;SDS011;5977;51.972;7.640;2022-07-29T03:49:38;168.83;;;52.27;;
11835;SDS011;5977;51.972;7.640;2022-07-29T03:52:07;169.30;;;52.77;;
11835;SDS011;5977;51.972;7.640;2022-07-29T03:54:35;167.50;;;51.53;;
11835;SDS011;5977;51.972;7.640;2022-07-29T03:57:04;168.27;;;52.03;;
11835;SDS011;5977;51.972;7.640;2022-07-29T03:59:34;169.43;;;52.60;;
11835;SDS011;5977;51.972;7.640;2022-07-29T04:02:04;168.37;;;52.10;;
11835;SDS011;5977;51.972;7.640;2022-07-29T04:04:34;168.57;;;52.20;;
11835;SDS011;5977;51.972;7.640;2022-07-29T04:07:03;168.10;;;51.90;;
11835;SDS011;5977;51.972;7.640;2022-07-29T04:09:31;167.80;;;51.50;;
11835;SDS011;5977;51.972;7.640;2022-07-29T04:11:59;169.73;;;52.60;;
11835;SDS011;5977;51.972;7.640;2022-07-29T04:14:30;169.13;;;52.73;;
11835;SDS011;5977;51.972;7.640;2022-07-29T04:16:58;168.67;;;52.23;;
11835;SDS011;5977;51.972;7.640;2022-07-29T04:19:26;168.07;;;51.80;;
11835;SDS011;5977;51.972;7.640;2022-07-29T04:21:55;168.07;;;51.97;;
11835;SDS011;5977;51.972;7.640;2022-07-29T04:24:23;168.63;;;51.57;;
11835;SDS011;5977;51.972;7.640;2022-07-29T04:26:51;168.33;;;51.93;;
11835;SDS011;5977;51.972;7.640;2022-07-29T04:29:19;167.20;;;51.40;;
11835;SDS011;5977;51.972;7.640;2022-07-29T04:31:47;168.03;;;51.17;;
11835;SDS011;5977;51.972;7.640;2022-07-29T04:34:15;168.00;;;51.23;;
11835;SDS011;5977;51.972;7.640;2022-07-29T04:36:44;167.63;;;50.83;;
11835;SDS011;5977;51.972;7.640;2022-07-29T04:39:13;166.90;;;50.77;;
11835;SDS011;5977;51.972;7.640;2022-07-29T04:41:48;168.40;;;51.73;;
11835;SDS011;5977;51.972;7.640;2022-07-29T04:44:17;167.60;;;51.00;;
11835;SDS011;5977;51.972;7.640;2022-07-29T04:46:45;167.60;;;51.13;;
11835;SDS011;5977;51.972;7.640;2022-07-29T04:49:13;167.70;;;50.97;;
11835;SDS011;5977;51.972;7.640;2022-07-29T04:51:41;167.80;;;51.23;;
11835;SDS011;5977;51.972;7.640;2022-07-29T04:54:09;166.33;;;50.67;;
11835;SDS011;5977;51.972;7.640;2022-07-29T04:56:38;165.83;;;50.30;;
11835;SDS011;5977;51.972;7.640;2022-07-29T04:59:07;167.27;;;51.23;;
11835;SDS011;5977;51.972;7.640;2022-07-29T05:01:38;166.77;;;51.03;;
11835;SDS011;5977;51.972;7.640;2022-07-29T05:04:08;165.60;;;50.60;;
11835;SDS011;5977;51.972;7.640;2022-07-29T05:06:36;166.93;;;51.20;;
11835;SDS011;5977;51.972;7.640;2022-07-29T05:09:03;167.30;;;51.10;;
11835;SDS011;5977;51.972;7.640;2022-07-29T05:11:31;167.07;;;51.10;;
11835;SDS011;5977;51.972;7.640;2022-07-29T05:14:00;167.27;;;51.20;;
11835;SDS011;5977;51.972;7.640;2022-07-29T05:16:28;166.27;;;50.83;;
11835;SDS011;5977;51.972;7.640;2022-07-29T05:18:56;167.30;;;50.87;;
11835;SDS011;5977;51.972;7.640;2022-07-29T05:21:24;166.77;;;51.10;;
11835;SDS011;5977;51.972;7.640;2022-07-29T05:23:52;167.70;;;50.97;;
11835;SDS011;5977;51.972;7.640;2022-07-29T05:26:20;166.90;;;51.07;;
11835;SDS011;5977;51.972;7.640;2022-07-29T05:28:48;165.70;;;50.43;;
11835;SDS011;5977;51.972;7.640;2022-07-29T05:31:17;165.77;;;50.53;;
11835;SDS011;5977;51.972;7.640;2022-07-29T05:33:45;166.83;;;51.07;;
11835;SDS011;5977;51.972;7.640;2022-07-29T05:36:13;166.40;;;50.80;;
11835;SDS011;5977;51.972;7.640;2022-07-29T05:38:41;167.17;;;50.93;;
11835;SDS011;5977;51.972;7.640;2022-07-29T05:41:09;167.47;;;51.23;;
11835;SDS011;5977;51.972;7.640;2022-07-29T05:43:37;166.43;;;50.67;;
11835;SDS011;5977;51.972;7.640;2022-07-29T05:46:05;165.73;;;50.43;;
11835;SDS011;5977;51.972;7.640;2022-07-29T05:48:34;166.97;;;50.97;;
11835;SDS011;5977;51.972;7.640;2022-07-29T05:51:02;166.90;;;50.80;;
11835;SDS011;5977;51.972;7.640;2022-07-29T05:53:31;167.07;;;51.10;;
11835;SDS011;5977;51.972;7.640;2022-07-29T05:56:02;166.63;;;51.10;;
11835;SDS011;5977;51.972;7.640;2022-07-29T05:58:30;167.73;;;51.73;;
11835;SDS011;5977;51.972;7.640;2022-07-29T06:00:58;166.83;;;51.07;;
11835;SDS011;5977;51.972;7.640;2022-07-29T06:03:27;167.60;;;51.53;;
11835;SDS011;5977;51.972;7.640;2022-07-29T06:05:56;166.70;;;51.10;;
11835;SDS011;5977;51.972;7.640;2022-07-29T06:08:24;166.87;;;51.23;;
11835;SDS011;5977;51.972;7.640;2022-07-29T06:10:53;167.40;;;51.47;;
11835;SDS011;5977;51.972;7.640;2022-07-29T06:13:21;167.13;;;51.27;;
11835;SDS011;5977;51.972;7.640;2022-07-29T06:15:49;166.57;;;51.17;;
11835;SDS011;5977;51.972;7.640;2022-07-29T06:18:17;167.10;;;51.73;;
11835;SDS011;5977;51.972;7.640;2022-07-29T06:20:46;167.97;;;51.93;;
11835;SDS011;5977;51.972;7.640;2022-07-29T06:23:16;166.63;;;51.33;;
11835;SDS011;5977;51.972;7.640;2022-07-29T06:25:44;167.43;;;52.07;;
11835;SDS011;5977;51.972;7.640;2022-07-29T06:28:12;166.73;;;51.40;;
11835;SDS011;5977;51.972;7.640;2022-07-29T06:30:40;167.13;;;52.20;;
11835;SDS011;5977;51.972;7.640;2022-07-29T06:33:08;167.83;;;52.23;;
11835;SDS011;5977;51.972;7.640;2022-07-29T06:35:36;167.10;;;51.67;;
11835;SDS011;5977;51.972;7.640;2022-07-29T06:38:08;167.47;;;51.80;;
11835;SDS011;5977;51.972;7.640;2022-07-29T06:40:57;167.27;;;51.60;;
11835;SDS011;5977;51.972;7.640;2022-07-29T06:43:30;167.30;;;51.47;;
11835;SDS011;5977;51.972;7.640;2022-07-29T06:46:00;167.47;;;51.70;;
11835;SDS011;5977;51.972;7.640;2022-07-29T06:48:29;167.43;;;51.67;;
11835;SDS011;5977;51.972;7.640;2022-07-29T06:50:57;167.00;;;51.47;;
11835;SDS011;5977;51.972;7.640;2022-07-29T06:53:25;167.30;;;51.50;;
11835;SDS011;5977;51.972;7.640;2022-07-29T06:55:53;167.43;;;51.13;;
11835;SDS011;5977;51.972;7.640;2022-07-29T06:58:22;167.27;;;51.33;;
11835;SDS011;5977;51.972;7.640;2022-07-29T07:00:56;167.33;;;51.47;;
11835;SDS011;5977;51.972;7.640;2022-07-29T07:03:25;166.07;;;51.07;;
11835;SDS011;5977;51.972;7.640;2022-07-29T07:05:53;167.97;;;51.80;;
11835;SDS011;5977;51.972;7.640;2022-07-29T07:08:22;166.97;;;51.40;;
11835;SDS011;5977;51.972;7.640;2022-07-29T07:10:50;167.17;;;51.67;;
11835;SDS011;5977;51.972;7.640;2022-07-29T07:13:18;166.63;;;51.43;;
11835;SDS011;5977;51.972;7.640;2022-07-29T07:15:48;166.80;;;51.33;;
11835;SDS011;5977;51.972;7.640;2022-07-29T07:18:17;166.47;;;51.43;;
11835;SDS011;5977;51.972;7.640;2022-07-29T07:20:45;166.17;;;51.07;;
11835;SDS011;5977;51.972;7.640;2022-07-29T07:23:13;166.30;;;51.53;;
11835;SDS011;5977;51.972;7.640;2022-07-29T07:25:41;166.43;;;51.60;;
11835;SDS011;5977;51.972;7.640;2022-07-29T07:28:09;167.27;;;51.87;;
11835;SDS011;5977;51.972;7.640;2022-07-29T07:30:37;167.17;;;51.90;;
11835;SDS011;5977;51.972;7.640;2022-07-29T07:33:07;167.20;;;51.90;;
11835;SDS011;5977;51.972;7.640;2022-07-29T07:35:35;167.67;;;52.03;;
11835;SDS011;5977;51.972;7.640;2022-07-29T07:38:03;167.57;;;51.77;;
11835;SDS011;5977;51.972;7.640;2022-07-29T07:40:32;167.53;;;52.33;;
11835;SDS011;5977;51.972;7.640;2022-07-29T07:43:00;167.00;;;51.90;;
11835;SDS011;5977;51.972;7.640;2022-07-29T07:45:28;167.70;;;51.93;;
11835;SDS011;5977;51.972;7.640;2022-07-29T07:47:58;167.03;;;51.73;;
11835;SDS011;5977;51.972;7.640;2022-07-29T07:50:27;167.53;;;51.97;;
11835;SDS011;5977;51.972;7.640;2022-07-29T07:52:55;167.60;;;51.90;;
11835;SDS011;5977;51.972;7.640;2022-07-29T07:55:25;167.90;;;52.03;;
11835;SDS011;5977;51.972;7.640;2022-07-29T07:57:53;167.23;;;51.87;;
11835;SDS011;5977;51.972;7.640;2022-07-29T08:00:21;166.93;;;52.23;;
11835;SDS011;5977;51.972;7.640;2022-07-29T08:02:49;166.70;;;51.87;;
11835;SDS011;5977;51.972;7.640;2022-07-29T08:05:17;166.60;;;51.97;;
11835;SDS011;5977;51.972;7.640;2022-07-29T08:07:46;167.20;;;52.23;;
11835;SDS011;5977;51.972;7.640;2022-07-29T08:10:15;166.70;;;52.00;;
11835;SDS011;5977;51.972;7.640;2022-07-29T08:13:05;167.03;;;52.17;;
11835;SDS011;5977;51.972;7.640;2022-07-29T08:15:33;166.70;;;51.77;;
11835;SDS011;5977;51.972;7.640;2022-07-29T08:18:02;167.40;;;52.33;;
11835;SDS011;5977;51.972;7.640;2022-07-29T08:20:34;167.07;;;51.90;;
11835;SDS011;5977;51.972;7.640;2022-07-29T08:23:04;166.87;;;51.80;;
11835;SDS011;5977;51.972;7.640;2022-07-29T08:25:32;167.40;;;52.27;;
11835;SDS011;5977;51.972;7.640;2022-07-29T08:28:05;167.33;;;52.27;;
11835;SDS011;5977;51.972;7.640;2022-07-29T08:30:33;167.40;;;52.23;;
11835;SDS011;5977;51.972;7.640;2022-07-29T08:33:01;167.17;;;52.20;;
11835;SDS011;5977;51.972;7.640;2022-07-29T08:35:29;167.47;;;52.30;;
11835;SDS011;5977;51.972;7.640;2022-07-29T08:38:01;168.50;;;52.90;;
11835;SDS011;5977;51.972;7.640;2022-07-29T08:40:31;169.20;;;53.27;;
11835;SDS011;5977;51.972;7.640;2022-07-29T08:42:59;168.00;;;52.73;;
11835;SDS011;5977;51.972;7.640;2022-07-29T08:45:35;168.07;;;52.83;;
11835;SDS011;5977;51.972;7.640;2022-07-29T08:48:12;168.30;;;52.60;;
11835;SDS011;5977;51.972;7.640;2022-07-29T08:50:41;168.23;;;52.87;;
11835;SDS011;5977;51.972;7.640;2022-07-29T08:53:13;168.37;;;52.77;;
11835;SDS011;5977;51.972;7.640;2022-07-29T08:55:42;167.13;;;52.40;;
11835;SDS011;5977;51.972;7.640;2022-07-29T08:58:12;168.23;;;52.90;;
11835;SDS011;5977;51.972;7.640;2022-07-29T09:00:41;168.13;;;52.83;;
11835;SDS011;5977;51.972;7.640;2022-07-29T09:03:14;167.47;;;52.50;;
11835;SDS011;5977;51.972;7.640;2022-07-29T09:05:44;168.20;;;52.60;;
11835;SDS011;5977;51.972;7.640;2022-07-29T09:08:15;167.60;;;52.63;;
11835;SDS011;5977;51.972;7.640;2022-07-29T09:10:44;168.17;;;52.97;;
11835;SDS011;5977;51.972;7.640;2022-07-29T09:13:12;167.53;;;52.47;;
11835;SDS011;5977;51.972;7.640;2022-07-29T09:15:40;169.17;;;53.27;;
11835;SDS011;5977;51.972;7.640;2022-07-29T09:18:08;168.00;;;52.77;;
11835;SDS011;5977;51.972;7.640;2022-07-29T09:20:56;167.60;;;52.17;;
11835;SDS011;5977;51.972;7.640;2022-07-29T09:23:45;167.47;;;52.57;;
11835;SDS011;5977;51.972;7.640;2022-07-29T09:26:27;167.33;;;52.13;;
11835;SDS011;5977;51.972;7.640;2022-07-29T09:28:56;166.90;;;51.87;;
11835;SDS011;5977;51.972;7.640;2022-07-29T09:31:35;168.23;;;52.77;;
11835;SDS011;5977;51.972;7.640;2022-07-29T09:34:05;167.83;;;52.50;;
11835;SDS011;5977;51.972;7.640;2022-07-29T09:36:38;168.70;;;53.27;;
11835;SDS011;5977;51.972;7.640;2022-07-29T09:39:08;167.53;;;52.53;;
11835;SDS011;5977;51.972;7.640;2022-07-29T09:41:44;167.00;;;51.90;;
11835;SDS011;5977;51.972;7.640;2022-07-29T09:44:13;168.53;;;53.03;;
11835;SDS011;5977;51.972;7.640;2022-07-29T09:46:51;166.87;;;52.10;;
11835;SDS011;5977;51.972;7.640;2022-07-29T09:49:24;167.27;;;52.50;;
11835;SDS011;5977;51.972;7.640;2022-07-29T09:51:59;167.57;;;52.60;;
11835;SDS011;5977;51.972;7.640;2022-07-29T09:54:31;168.03;;;52.70;;
11835;SDS011;5977;51.972;7.640;2022-07-29T09:57:03;168.33;;;52.90;;
11835;SDS011;5977;51.972;7.640;2022-07-29T09:59:33;168.70;;;53.07;;
11835;SDS011;5977;51.972;7.640;2022-07-29T10:02:01;167.63;;;52.70;;
11835;SDS011;5977;51.972;7.640;2022-07-29T10:04:38;168.20;;;52.77;;
11835;SDS011;5977;51.972;7.640;2022-07-29T10:07:06;168.50;;;53.13;;
11835;SDS011;5977;51.972;7.640;2022-07-29T10:09:36;168.87;;;53.50;;
11835;SDS011;5977;51.972;7.640;2022-07-29T10:12:05;168.50;;;53.50;;
11835;SDS011;5977;51.972;7.640;2022-07-29T10:14:35;169.53;;;53.70;;
11835;SDS011;5977;51.972;7.640;2022-07-29T10:17:04;169.13;;;53.97;;
11835;SDS011;5977;51.972;7.640;2022-07-29T10:19:34;170.60;;;54.03;;
11835;SDS011;5977;51.972;7.640;2022-07-29T10:22:03;170.83;;;54.47;;
11835;SDS011;5977;51.972;7.640;2022-07-29T10:24:33;170.80;;;54.37;;
11835;SDS011;5977;51.972;7.640;2022-07-29T10:27:03;170.73;;;54.37;;
11835;SDS011;5977;51.972;7.640;2022-07-29T10:29:32;170.73;;;54.33;;
11835;SDS011;5977;51.972;7.640;2022-07-29T10:35:15;170.27;;;54.13;;
11835;SDS011;5977;51.972;7.640;2022-07-29T10:38:02;169.73;;;53.43;;
11835;SDS011;5977;51.972;7.640;2022-07-29T10:40:44;170.00;;;53.57;;
11835;SDS011;5977;51.972;7.640;2022-07-29T10:43:46;171.63;;;54.80;;
11835;SDS011;5977;51.972;7.640;2022-07-29T10:46:17;171.37;;;54.33;;
11835;SDS011;5977;51.972;7.640;2022-07-29T10:49:04;171.23;;;54.40;;
11835;SDS011;5977;51.972;7.640;2022-07-29T10:57:20;169.90;;;53.40;;
11835;SDS011;5977;51.972;7.640;2022-07-29T11:00:27;170.07;;;53.40;;
11835;SDS011;5977;51.972;7.640;2022-07-29T11:02:57;169.40;;;52.90;;
11835;SDS011;5977;51.972;7.640;2022-07-29T11:05:30;170.37;;;53.63;;
11835;SDS011;5977;51.972;7.640;2022-07-29T11:08:24;170.23;;;53.37;;
11835;SDS011;5977;51.972;7.640;2022-07-29T11:14:09;169.33;;;52.97;;
11835;SDS011;5977;51.972;7.640;2022-07-29T11:19:32;169.03;;;52.47;;
11835;SDS011;5977;51.972;7.640;2022-07-29T11:22:07;169.80;;;53.13;;
11835;SDS011;5977;51.972;7.640;2022-07-29T11:24:36;170.47;;;53.67;;
11835;SDS011;5977;51.972;7.640;2022-07-29T11:27:16;169.70;;;53.33;;
11835;SDS011;5977;51.972;7.640;2022-07-29T11:29:49;169.90;;;53.23;;
11835;SDS011;5977;51.972;7.640;2022-07-29T11:32:23;170.73;;;53.53;;
11835;SDS011;5977;51.972;7.640;2022-07-29T11:35:10;170.70;;;53.47;;
11835;SDS011;5977;51.972;7.640;2022-07-29T11:37:43;169.47;;;52.93;;
11835;SDS011;5977;51.972;7.640;2022-07-29T11:40:20;170.40;;;53.33;;
11835;SDS011;5977;51.972;7.640;2022-07-29T11:42:49;170.03;;;53.53;;
11835;SDS011;5977;51.972;7.640;2022-07-29T11:45:18;169.57;;;53.00;;
11835;SDS011;5977;51.972;7.640;2022-07-29T11:48:14;169.93;;;53.27;;
11835;SDS011;5977;51.972;7.640;2022-07-29T11:50:58;169.73;;;52.90;;
11835;SDS011;5977;51.972;7.640;2022-07-29T11:53:26;169.43;;;52.77;;
11835;SDS011;5977;51.972;7.640;2022-07-29T11:55:58;169.53;;;53.07;;
11835;SDS011;5977;51.972;7.640;2022-07-29T11:58:28;170.10;;;52.90;;
11835;SDS011;5977;51.972;7.640;2022-07-29T12:00:57;169.30;;;52.50;;
11835;SDS011;5977;51.972;7.640;2022-07-29T12:03:32;169.67;;;52.73;;
11835;SDS011;5977;51.972;7.640;2022-07-29T12:06:11;169.90;;;53.10;;
11835;SDS011;5977;51.972;7.640;2022-07-29T12:08:42;169.70;;;52.90;;
11835;SDS011;5977;51.972;7.640;2022-07-29T12:11:17;169.60;;;52.70;;
11835;SDS011;5977;51.972;7.640;2022-07-29T12:13:48;168.17;;;51.97;;
11835;SDS011;5977;51.972;7.640;2022-07-29T12:16:16;169.03;;;52.40;;
11835;SDS011;5977;51.972;7.640;2022-07-29T12:18:56;168.77;;;52.17;;
11835;SDS011;5977;51.972;7.640;2022-07-29T12:21:25;169.50;;;52.83;;
11835;SDS011;5977;51.972;7.640;2022-07-29T12:23:56;168.97;;;52.33;;
11835;SDS011;5977;51.972;7.640;2022-07-29T12:26:34;169.13;;;52.17;;
11835;SDS011;5977;51.972;7.640;2022-07-29T12:29:02;169.10;;;52.23;;
11835;SDS011;5977;51.972;7.640;2022-07-29T12:31:40;169.43;;;52.60;;
11835;SDS011;5977;51.972;7.640;2022-07-29T12:34:12;168.97;;;52.13;;
11835;SDS011;5977;51.972;7.640;2022-07-29T12:36:42;169.63;;;52.50;;
11835;SDS011;5977;51.972;7.640;2022-07-29T12:39:10;169.17;;;52.20;;
11835;SDS011;5977;51.972;7.640;2022-07-29T12:41:38;169.13;;;52.60;;
11835;SDS011;5977;51.972;7.640;2022-07-29T12:44:06;168.97;;;52.37;;
11835;SDS011;5977;51.972;7.640;2022-07-29T12:46:34;169.80;;;52.70;;
11835;SDS011;5977;51.972;7.640;2022-07-29T12:49:04;169.80;;;52.67;;
11835;SDS011;5977;51.972;7.640;2022-07-29T12:51:34;170.40;;;53.30;;
11835;SDS011;5977;51.972;7.640;2022-07-29T12:54:05;170.70;;;53.37;;
11835;SDS011;5977;51.972;7.640;2022-07-29T12:56:34;169.57;;;52.57;;
11835;SDS011;5977;51.972;7.640;2022-07-29T12:59:11;169.63;;;52.93;;
11835;SDS011;5977;51.972;7.640;2022-07-29T13:01:40;169.97;;;52.93;;
11835;SDS011;5977;51.972;7.640;2022-07-29T13:04:08;169.37;;;52.63;;
11835;SDS011;5977;51.972;7.640;2022-07-29T13:06:38;169.17;;;52.80;;
11835;SDS011;5977;51.972;7.640;2022-07-29T13:09:12;169.77;;;53.10;;
11835;SDS011;5977;51.972;7.640;2022-07-29T13:11:42;169.83;;;52.80;;
11835;SDS011;5977;51.972;7.640;2022-07-29T13:14:14;169.37;;;52.90;;
11835;SDS011;5977;51.972;7.640;2022-07-29T13:17:00;169.97;;;53.13;;
11835;SDS011;5977;51.972;7.640;2022-07-29T13:19:33;171.10;;;53.47;;
11835;SDS011;5977;51.972;7.640;2022-07-29T13:22:04;169.53;;;52.83;;
11835;SDS011;5977;51.972;7.640;2022-07-29T13:24:32;169.60;;;53.10;;
11835;SDS011;5977;51.972;7.640;2022-07-29T13:27:00;169.60;;;52.87;;
11835;SDS011;5977;51.972;7.640;2022-07-29T13:29:31;169.87;;;52.93;;
11835;SDS011;5977;51.972;7.640;2022-07-29T13:31:59;169.67;;;52.83;;
11835;SDS011;5977;51.972;7.640;2022-07-29T13:34:27;170.13;;;53.43;;
11835;SDS011;5977;51.972;7.640;2022-07-29T13:36:55;169.50;;;53.23;;
11835;SDS011;5977;51.972;7.640;2022-07-29T13:39:24;169.70;;;53.43;;
11835;SDS011;5977;51.972;7.640;2022-07-29T13:41:52;170.53;;;53.63;;
11835;SDS011;5977;51.972;7.640;2022-07-29T13:44:21;170.07;;;53.43;;
11835;SDS011;5977;51.972;7.640;2022-07-29T13:46:49;170.13;;;53.67;;
11835;SDS011;5977;51.972;7.640;2022-07-29T13:49:17;171.27;;;54.20;;
11835;SDS011;5977;51.972;7.640;2022-07-29T13:51:45;172.37;;;54.70;;
11835;SDS011;5977;51.972;7.640;2022-07-29T13:54:13;171.10;;;54.03;;
11835;SDS011;5977;51.972;7.640;2022-07-29T13:56:42;172.03;;;54.63;;
11835;SDS011;5977;51.972;7.640;2022-07-29T13:59:11;172.43;;;54.80;;
11835;SDS011;5977;51.972;7.640;2022-07-29T14:01:40;171.83;;;54.47;;
11835;SDS011;5977;51.972;7.640;2022-07-29T14:04:10;171.80;;;54.83;;
11835;SDS011;5977;51.972;7.640;2022-07-29T14:06:39;171.30;;;54.60;;
11835;SDS011;5977;51.972;7.640;2022-07-29T14:09:07;172.60;;;55.20;;
11835;SDS011;5977;51.972;7.640;2022-07-29T14:11:35;172.67;;;55.10;;
11835;SDS011;5977;51.972;7.640;2022-07-29T14:14:05;172.83;;;55.40;;
11835;SDS011;5977;51.972;7.640;2022-07-29T14:16:33;172.40;;;55.23;;
11835;SDS011;5977;51.972;7.640;2022-07-29T14:19:08;172.50;;;54.80;;
11835;SDS011;5977;51.972;7.640;2022-07-29T14:21:37;172.63;;;55.30;;
11835;SDS011;5977;51.972;7.640;2022-07-29T14:24:05;173.20;;;55.73;;
11835;SDS011;5977;51.972;7.640;2022-07-29T14:26:46;173.00;;;55.47;;
11835;SDS011;5977;51.972;7.640;2022-07-29T14:29:16;173.13;;;55.63;;
11835;SDS011;5977;51.972;7.640;2022-07-29T14:31:44;172.43;;;55.37;;
11835;SDS011;5977;51.972;7.640;2022-07-29T14:34:12;172.77;;;55.77;;
11835;SDS011;5977;51.972;7.640;2022-07-29T14:36:41;173.47;;;56.27;;
11835;SDS011;5977;51.972;7.640;2022-07-29T14:39:09;173.27;;;56.17;;
11835;SDS011;5977;51.972;7.640;2022-07-29T14:41:37;174.07;;;56.30;;
11835;SDS011;5977;51.972;7.640;2022-07-29T14:44:05;171.97;;;55.10;;
11835;SDS011;5977;51.972;7.640;2022-07-29T14:46:34;172.67;;;55.90;;
11835;SDS011;5977;51.972;7.640;2022-07-29T14:49:02;172.10;;;55.47;;
11835;SDS011;5977;51.972;7.640;2022-07-29T14:51:32;172.13;;;55.50;;
11835;SDS011;5977;51.972;7.640;2022-07-29T14:54:00;172.17;;;55.50;;
11835;SDS011;5977;51.972;7.640;2022-07-29T14:56:28;171.80;;;55.47;;
11835;SDS011;5977;51.972;7.640;2022-07-29T14:59:02;173.73;;;56.70;;
11835;SDS011;5977;51.972;7.640;2022-07-29T15:01:30;173.10;;;56.60;;